Time,TemperatureF,DewpointF,PressureIn,WindDirection,WindDirectionDegrees,WindSpeedMPH,WindSpeedGustMPH,Humidity,HourlyPrecipIn,Conditions,Clouds,dailyrainin,SoftwareType,DateUTC
2013-06-06 00:04:00,59.2,54.3,29.88,NE,45,0.0,1.2,84,0.00,RA,FEW,0.00,WeatherDisplay:10.37,2013-06-06 05:04:00,
2013-06-06 00:10:00,59.0,54.2,29.87,NE,45,0.0,1.2,84,0.00,RA,FEW,0.00,WeatherDisplay:10.37,2013-06-06 05:10:00,
2013-06-06 00:15:00,58.8,54.0,29.88,SE,135,0.0,1.2,84,0.00,OVC,FEW,0.00,WeatherDisplay:10.37,2013-06-06 05:15:00,
2013-06-06 00:21:00,58.8,54.0,29.88,South,180,0.0,0.0,84,0.00,OVC,FEW,0.00,WeatherDisplay:10.37,2013-06-06 05:21:00,
2013-06-06 00:27:00,58.6,53.8,29.87,East,90,0.7,3.5,84,0.00,OVC,FEW,0.00,WeatherDisplay:10.37,2013-06-06 05:27:00,
2013-06-06 00:32:00,58.6,53.8,29.88,East,90,0.0,1.2,84,0.00,OVC,FEW,0.00,WeatherDisplay:10.37,2013-06-06 05:32:00,
2013-06-06 00:38:00,58.6,53.8,29.87,East,90,0.0,1.2,84,0.00,OVC,FEW,0.00,WeatherDisplay:10.37,2013-06-06 05:38:00,
2013-06-06 00:43:00,58.5,53.6,29.87,East,90,0.0,0.0,84,0.00,OVC,FEW,0.00,WeatherDisplay:10.37,2013-06-06 05:43:00,
2013-06-06 00:49:00,58.5,53.6,29.86,NE,45,0.0,1.2,84,0.00,OVC,FEW,0.00,WeatherDisplay:10.37,2013-06-06 05:49:00,
2013-06-06 00:55:00,58.3,53.5,29.86,South,180,0.0,2.3,84,0.00,OVC,FEW,0.00,WeatherDisplay:10.37,2013-06-06 05:55:00,
2013-06-06 01:00:00,58.1,53.3,29.86,SW,225,0.0,0.0,84,0.00,OVC,FEW,0.00,WeatherDisplay:10.37,2013-06-06 06:00:00,
2013-06-06 01:06:00,58.1,53.3,29.86,SW,225,0.0,0.0,84,0.00,OVC,FEW,0.00,WeatherDisplay:10.37,2013-06-06 06:06:00,
2013-06-06 01:11:00,58.1,53.3,29.86,North,0,0.0,0.0,84,0.00,OVC,FEW,0.00,WeatherDisplay:10.37,2013-06-06 06:11:00,
2013-06-06 01:17:00,57.9,53.1,29.86,SW,225,0.0,1.2,84,0.00,OVC,FEW,0.00,WeatherDisplay:10.37,2013-06-06 06:17:00,
2013-06-06 01:23:00,57.7,52.9,29.86,South,180,0.0,0.0,84,0.00,OVC,FEW,0.00,WeatherDisplay:10.37,2013-06-06 06:23:00,
2013-06-06 01:28:00,57.6,52.8,29.86,South,180,0.0,1.2,84,0.00,OVC,FEW,0.00,WeatherDisplay:10.37,2013-06-06 06:28:00,
2013-06-06 01:34:00,57.6,52.8,29.87,South,180,0.0,0.0,84,0.00,OVC,FEW,0.00,WeatherDisplay:10.37,2013-06-06 06:34:00,
2013-06-06 01:39:00,57.4,52.6,29.86,NE,45,0.0,0.0,84,0.01,RA,FEW,0.01,WeatherDisplay:10.37,2013-06-06 06:39:00,
2013-06-06 01:45:00,57.4,52.6,29.86,North,0,0.0,0.0,84,0.02,RA,FEW,0.02,WeatherDisplay:10.37,2013-06-06 06:45:00,
2013-06-06 01:51:00,57.2,52.4,29.85,East,90,0.0,1.2,84,0.04,RA,FEW,0.04,WeatherDisplay:10.37,2013-06-06 06:51:00,
2013-06-06 01:57:00,57.2,52.4,29.85,North,0,0.0,2.3,84,0.05,RA,FEW,0.05,WeatherDisplay:10.37,2013-06-06 06:57:00,
2013-06-06 02:03:00,57.0,52.2,29.85,NE,45,0.0,0.0,84,0.05,RA,FEW,0.06,WeatherDisplay:10.37,2013-06-06 07:03:00,
2013-06-06 02:08:00,56.8,52.1,29.85,North,0,0.0,0.0,84,0.07,RA,FEW,0.07,WeatherDisplay:10.37,2013-06-06 07:08:00,
2013-06-06 02:14:00,56.8,52.1,29.85,North,0,0.0,0.0,84,0.07,RA,FEW,0.07,WeatherDisplay:10.37,2013-06-06 07:14:00,
2013-06-06 02:19:00,56.8,52.1,29.85,North,0,0.0,0.0,84,0.07,OVC,FEW,0.07,WeatherDisplay:10.37,2013-06-06 07:19:00,
2013-06-06 02:25:00,56.7,51.9,29.85,NE,45,0.0,1.2,84,0.08,RA,FEW,0.08,WeatherDisplay:10.37,2013-06-06 07:25:00,
2013-06-06 02:31:00,56.7,51.9,29.84,NE,45,0.0,0.0,84,0.08,RA,FEW,0.08,WeatherDisplay:10.37,2013-06-06 07:31:00,
2013-06-06 02:36:00,56.7,51.9,29.84,East,90,0.0,1.2,84,0.07,OVC,FEW,0.08,WeatherDisplay:10.37,2013-06-06 07:36:00,
2013-06-06 02:42:00,56.7,51.9,29.84,North,0,0.0,0.0,84,0.07,OVC,FEW,0.08,WeatherDisplay:10.37,2013-06-06 07:42:00,
2013-06-06 02:47:00,56.5,51.7,29.84,West,270,0.0,0.0,84,0.06,OVC,FEW,0.08,WeatherDisplay:10.37,2013-06-06 07:47:00,
2013-06-06 02:53:00,56.5,51.7,29.84,NW,315,0.0,1.2,84,0.05,OVC,FEW,0.08,WeatherDisplay:10.37,2013-06-06 07:53:00,
2013-06-06 02:59:00,56.5,51.7,29.84,North,0,0.0,1.2,84,0.04,OVC,FEW,0.08,WeatherDisplay:10.37,2013-06-06 07:59:00,
2013-06-06 03:04:00,56.5,51.7,29.84,NW,315,0.0,1.2,84,0.02,OVC,FEW,0.08,WeatherDisplay:10.37,2013-06-06 08:04:00,
2013-06-06 03:10:00,56.5,51.7,29.84,NW,315,0.0,2.3,84,0.01,OVC,FEW,0.08,WeatherDisplay:10.37,2013-06-06 08:10:00,
2013-06-06 03:15:00,56.7,51.9,29.83,North,0,0.0,1.2,84,0.01,OVC,FEW,0.08,WeatherDisplay:10.37,2013-06-06 08:15:00,
2013-06-06 03:21:00,56.7,51.9,29.83,North,0,0.0,1.2,84,0.01,OVC,FEW,0.08,WeatherDisplay:10.37,2013-06-06 08:21:00,
2013-06-06 03:27:00,56.7,51.9,29.83,North,0,0.0,1.2,84,0.00,OVC,FEW,0.08,WeatherDisplay:10.37,2013-06-06 08:27:00,
2013-06-06 03:32:00,56.7,51.9,29.83,NW,315,0.0,1.2,84,0.00,OVC,FEW,0.08,WeatherDisplay:10.37,2013-06-06 08:32:00,
2013-06-06 03:38:00,56.7,51.9,29.83,North,0,0.0,1.2,84,0.00,OVC,FEW,0.08,WeatherDisplay:10.37,2013-06-06 08:38:00,
2013-06-06 03:43:00,56.8,52.1,29.83,West,270,0.0,0.0,84,0.00,OVC,FEW,0.08,WeatherDisplay:10.37,2013-06-06 08:43:00,
2013-06-06 03:49:00,56.7,51.9,29.83,North,0,0.0,0.0,84,0.00,OVC,FEW,0.08,WeatherDisplay:10.37,2013-06-06 08:49:00,
2013-06-06 03:55:00,56.8,52.1,29.83,NW,315,0.0,1.2,84,0.00,OVC,FEW,0.08,WeatherDisplay:10.37,2013-06-06 08:55:00,
2013-06-06 04:00:00,56.8,52.1,29.83,North,0,0.0,2.3,84,0.00,OVC,FEW,0.08,WeatherDisplay:10.37,2013-06-06 09:00:00,
2013-06-06 04:07:00,56.8,52.1,29.83,North,0,1.6,4.6,84,0.00,OVC,FEW,0.08,WeatherDisplay:10.37,2013-06-06 09:07:00,
2013-06-06 04:12:00,56.8,52.1,29.83,North,0,0.0,1.6,84,0.01,RA,FEW,0.09,WeatherDisplay:10.37,2013-06-06 09:12:00,
2013-06-06 04:18:00,56.7,51.9,29.83,NW,315,0.0,2.3,84,0.02,RA,FEW,0.11,WeatherDisplay:10.37,2013-06-06 09:18:00,
2013-06-06 04:23:00,56.7,51.9,29.83,North,0,0.0,0.7,84,0.02,RA,FEW,0.11,WeatherDisplay:10.37,2013-06-06 09:23:00,
2013-06-06 04:29:00,56.5,51.7,29.83,North,0,0.0,1.2,84,0.04,RA,FEW,0.12,WeatherDisplay:10.37,2013-06-06 09:29:00,
2013-06-06 04:35:00,56.5,51.7,29.83,NE,45,1.6,3.5,84,0.04,RA,FEW,0.12,WeatherDisplay:10.37,2013-06-06 09:35:00,
2013-06-06 04:40:00,56.3,51.5,29.83,NW,315,0.7,3.5,84,0.04,OVC,FEW,0.12,WeatherDisplay:10.37,2013-06-06 09:40:00,
2013-06-06 04:46:00,56.3,51.5,29.83,NW,315,0.0,2.3,84,0.05,RA,FEW,0.13,WeatherDisplay:10.37,2013-06-06 09:46:00,
2013-06-06 04:51:00,56.3,51.5,29.83,North,0,0.7,3.5,84,0.05,RA,FEW,0.13,WeatherDisplay:10.37,2013-06-06 09:51:00,
2013-06-06 04:57:00,56.3,51.5,29.83,East,90,0.0,1.2,84,0.05,OVC,FEW,0.13,WeatherDisplay:10.37,2013-06-06 09:57:00,
2013-06-06 05:03:00,56.3,51.5,29.83,East,90,0.0,1.2,84,0.05,OVC,FEW,0.14,WeatherDisplay:10.37,2013-06-06 10:03:00,
2013-06-06 05:08:00,56.3,51.5,29.83,West,270,0.0,1.2,84,0.05,RA,FEW,0.14,WeatherDisplay:10.37,2013-06-06 10:08:00,
2013-06-06 05:14:00,56.3,51.5,29.82,North,0,0.0,1.2,84,0.06,RA,FEW,0.15,WeatherDisplay:10.37,2013-06-06 10:14:00,
2013-06-06 05:19:00,56.1,51.4,29.83,North,0,0.0,1.2,84,0.05,RA,FEW,0.15,WeatherDisplay:10.37,2013-06-06 10:19:00,
2013-06-06 05:25:00,56.3,51.5,29.82,NE,45,0.0,1.6,84,0.08,RA,FEW,0.19,WeatherDisplay:10.37,2013-06-06 10:25:00,
2013-06-06 05:31:00,56.3,51.5,29.82,East,90,0.7,2.3,84,0.08,RA,FEW,0.21,WeatherDisplay:10.37,2013-06-06 10:31:00,
2013-06-06 05:36:00,56.1,51.4,29.82,West,270,0.0,1.2,84,0.09,RA,FEW,0.21,WeatherDisplay:10.37,2013-06-06 10:36:00,
2013-06-06 05:42:00,56.1,51.4,29.82,NW,315,0.7,2.3,84,0.09,OVC,FEW,0.21,WeatherDisplay:10.37,2013-06-06 10:42:00,
2013-06-06 05:47:00,56.1,51.4,29.83,South,180,0.0,1.2,84,0.08,OVC,FEW,0.21,WeatherDisplay:10.37,2013-06-06 10:47:00,
2013-06-06 05:53:00,56.1,51.4,29.83,NW,315,0.0,1.2,84,0.08,OVC,FEW,0.21,WeatherDisplay:10.37,2013-06-06 10:53:00,
2013-06-06 05:59:00,56.3,51.5,29.83,North,0,0.7,1.2,84,0.08,OVC,FEW,0.21,WeatherDisplay:10.37,2013-06-06 10:59:00,
2013-06-06 06:04:00,56.3,51.5,29.83,NE,45,0.0,1.2,84,0.07,OVC,FEW,0.21,WeatherDisplay:10.37,2013-06-06 11:04:00,
2013-06-06 06:10:00,56.3,51.5,29.83,North,0,0.0,0.0,84,0.07,OVC,FEW,0.21,WeatherDisplay:10.37,2013-06-06 11:10:00,
2013-06-06 06:15:00,56.5,51.7,29.83,NW,315,0.0,0.0,84,0.06,OVC,FEW,0.21,WeatherDisplay:10.37,2013-06-06 11:15:00,
2013-06-06 06:21:00,56.5,51.7,29.83,North,0,0.0,2.3,84,0.04,OVC,FEW,0.21,WeatherDisplay:10.37,2013-06-06 11:21:00,
2013-06-06 06:27:00,56.5,51.7,29.83,North,0,0.0,2.3,84,0.02,OVC,FEW,0.21,WeatherDisplay:10.37,2013-06-06 11:27:00,
2013-06-06 06:32:00,56.5,51.7,29.83,NW,315,1.6,3.5,84,0.00,OVC,FEW,0.21,WeatherDisplay:10.37,2013-06-06 11:32:00,
2013-06-06 06:38:00,56.5,51.7,29.83,NW,315,0.7,1.2,84,0.00,OVC,FEW,0.21,WeatherDisplay:10.37,2013-06-06 11:38:00,
2013-06-06 06:43:00,56.7,51.9,29.83,NW,315,0.7,3.5,84,0.00,OVC,FEW,0.21,WeatherDisplay:10.37,2013-06-06 11:43:00,
2013-06-06 06:49:00,56.7,51.9,29.84,North,0,0.0,1.2,84,0.00,OVC,FEW,0.21,WeatherDisplay:10.37,2013-06-06 11:49:00,
2013-06-06 06:55:00,56.8,52.1,29.83,NE,45,0.0,0.0,84,0.00,OVC,FEW,0.21,WeatherDisplay:10.37,2013-06-06 11:55:00,
2013-06-06 07:00:00,56.8,52.1,29.84,NW,315,0.0,0.0,84,0.00,OVC,FEW,0.21,WeatherDisplay:10.37,2013-06-06 12:00:00,
2013-06-06 07:07:00,57.0,52.2,29.84,NW,315,0.0,1.6,84,0.00,OVC,FEW,0.21,WeatherDisplay:10.37,2013-06-06 12:07:00,
2013-06-06 07:12:00,57.0,52.2,29.84,North,0,0.7,2.2,84,0.00,OVC,FEW,0.21,WeatherDisplay:10.37,2013-06-06 12:12:00,
2013-06-06 07:18:00,57.0,52.2,29.84,NE,45,0.0,1.2,84,0.00,OVC,FEW,0.21,WeatherDisplay:10.37,2013-06-06 12:18:00,
2013-06-06 07:23:00,57.0,52.2,29.84,North,0,0.0,1.2,84,0.00,OVC,FEW,0.21,WeatherDisplay:10.37,2013-06-06 12:23:00,
2013-06-06 07:29:00,57.2,52.4,29.84,East,90,0.0,0.0,84,0.00,OVC,FEW,0.21,WeatherDisplay:10.37,2013-06-06 12:29:00,
2013-06-06 07:35:00,57.2,52.4,29.84,NE,45,0.0,0.0,84,0.00,OVC,FEW,0.21,WeatherDisplay:10.37,2013-06-06 12:35:00,
2013-06-06 07:40:00,57.2,52.4,29.84,NE,45,0.0,0.0,84,0.00,OVC,FEW,0.21,WeatherDisplay:10.37,2013-06-06 12:40:00,
2013-06-06 07:46:00,57.2,52.4,29.85,North,0,0.0,0.0,84,0.00,OVC,FEW,0.21,WeatherDisplay:10.37,2013-06-06 12:46:00,
2013-06-06 07:51:00,57.2,52.4,29.84,East,90,0.0,0.0,84,0.00,OVC,FEW,0.21,WeatherDisplay:10.37,2013-06-06 12:51:00,
2013-06-06 07:57:00,57.4,52.6,29.84,East,90,0.0,0.0,84,0.00,OVC,FEW,0.21,WeatherDisplay:10.37,2013-06-06 12:57:00,
2013-06-06 08:03:00,57.6,52.8,29.84,NW,315,0.0,0.0,84,0.00,OVC,FEW,0.21,WeatherDisplay:10.37,2013-06-06 13:03:00,
2013-06-06 08:08:00,57.7,52.9,29.84,NE,45,0.0,1.2,84,0.00,OVC,FEW,0.21,WeatherDisplay:10.37,2013-06-06 13:08:00,
2013-06-06 08:14:00,58.1,53.3,29.84,NW,315,0.0,0.0,84,0.00,OVC,FEW,0.21,WeatherDisplay:10.37,2013-06-06 13:14:00,
2013-06-06 08:19:00,58.3,53.5,29.84,NW,315,0.0,0.0,84,0.00,OVC,FEW,0.21,WeatherDisplay:10.37,2013-06-06 13:19:00,
2013-06-06 08:25:00,58.5,53.6,29.84,NW,315,0.7,1.2,84,0.00,OVC,FEW,0.21,WeatherDisplay:10.37,2013-06-06 13:25:00,
2013-06-06 08:31:00,58.1,53.3,29.84,NW,315,0.0,1.2,84,0.00,OVC,FEW,0.21,WeatherDisplay:10.37,2013-06-06 13:31:00,
2013-06-06 08:36:00,57.9,53.1,29.85,NW,315,0.0,3.5,84,0.00,OVC,FEW,0.21,WeatherDisplay:10.37,2013-06-06 13:36:00,
2013-06-06 08:42:00,58.1,53.3,29.84,NW,315,0.7,1.6,84,0.00,OVC,FEW,0.21,WeatherDisplay:10.37,2013-06-06 13:42:00,
2013-06-06 08:47:00,58.1,53.3,29.85,NE,45,0.0,0.7,84,0.00,OVC,FEW,0.21,WeatherDisplay:10.37,2013-06-06 13:47:00,
2013-06-06 08:53:00,58.1,53.3,29.85,NE,45,0.0,1.2,84,0.00,OVC,FEW,0.21,WeatherDisplay:10.37,2013-06-06 13:53:00,
2013-06-06 08:59:00,58.3,53.5,29.85,North,0,0.0,1.2,84,0.00,OVC,FEW,0.21,WeatherDisplay:10.37,2013-06-06 13:59:00,
2013-06-06 09:04:00,58.1,53.3,29.85,East,90,0.0,2.3,84,0.00,OVC,FEW,0.21,WeatherDisplay:10.37,2013-06-06 14:04:00,
2013-06-06 09:10:00,58.1,53.3,29.85,NW,315,0.0,0.0,84,0.00,OVC,FEW,0.21,WeatherDisplay:10.37,2013-06-06 14:10:00,
2013-06-06 09:15:00,58.1,53.3,29.85,NW,315,0.0,0.0,84,0.00,OVC,FEW,0.21,WeatherDisplay:10.37,2013-06-06 14:15:00,
2013-06-06 09:21:00,58.3,53.5,29.85,North,0,0.0,0.0,84,0.00,OVC,FEW,0.21,WeatherDisplay:10.37,2013-06-06 14:21:00,
2013-06-06 09:27:00,58.5,53.6,29.85,East,90,0.0,0.0,84,0.00,OVC,FEW,0.21,WeatherDisplay:10.37,2013-06-06 14:27:00,
2013-06-06 09:32:00,58.5,53.6,29.85,NE,45,0.7,2.3,84,0.00,OVC,FEW,0.21,WeatherDisplay:10.37,2013-06-06 14:32:00,
2013-06-06 09:38:00,58.5,53.6,29.85,East,90,0.0,1.6,84,0.01,RA,FEW,0.22,WeatherDisplay:10.37,2013-06-06 14:38:00,
2013-06-06 09:43:00,58.6,53.8,29.85,NE,45,0.0,2.3,84,0.01,RA,FEW,0.22,WeatherDisplay:10.37,2013-06-06 14:43:00,
2013-06-06 09:49:00,58.5,53.6,29.85,NE,45,0.0,1.2,84,0.01,OVC,FEW,0.22,WeatherDisplay:10.37,2013-06-06 14:49:00,
2013-06-06 09:55:00,58.6,53.8,29.85,NE,45,0.0,1.2,84,0.01,OVC,FEW,0.22,WeatherDisplay:10.37,2013-06-06 14:55:00,
2013-06-06 10:00:00,58.3,53.5,29.85,East,90,0.0,2.3,84,0.01,OVC,FEW,0.22,WeatherDisplay:10.37,2013-06-06 15:00:00,
2013-06-06 10:06:00,58.5,53.6,29.85,NE,45,0.0,1.2,84,0.01,OVC,FEW,0.22,WeatherDisplay:10.37,2013-06-06 15:06:00,
2013-06-06 10:11:00,58.3,53.5,29.85,East,90,0.0,1.2,84,0.01,OVC,FEW,0.22,WeatherDisplay:10.37,2013-06-06 15:11:00,
2013-06-06 10:17:00,58.3,53.5,29.85,East,90,0.0,0.0,84,0.01,OVC,FEW,0.22,WeatherDisplay:10.37,2013-06-06 15:17:00,
2013-06-06 10:23:00,58.5,53.6,29.85,NE,45,0.0,1.2,84,0.01,OVC,FEW,0.22,WeatherDisplay:10.37,2013-06-06 15:23:00,
2013-06-06 10:28:00,58.8,54.0,29.85,NE,45,0.0,1.2,84,0.01,OVC,FEW,0.22,WeatherDisplay:10.37,2013-06-06 15:28:00,
2013-06-06 10:34:00,59.0,54.2,29.85,North,0,0.7,3.1,84,0.01,OVC,FEW,0.22,WeatherDisplay:10.37,2013-06-06 15:34:00,
2013-06-06 10:39:00,59.2,54.3,29.85,North,0,0.7,2.3,84,0.00,OVC,FEW,0.22,WeatherDisplay:10.37,2013-06-06 15:39:00,
2013-06-06 10:45:00,59.9,55.1,29.85,North,0,0.0,1.2,84,0.00,OVC,FEW,0.22,WeatherDisplay:10.37,2013-06-06 15:45:00,
2013-06-06 10:51:00,60.1,55.2,29.85,NE,45,0.0,1.2,84,0.00,OVC,FEW,0.22,WeatherDisplay:10.37,2013-06-06 15:51:00,
2013-06-06 10:57:00,60.8,55.9,29.85,SE,135,0.0,0.0,84,0.00,OVC,FEW,0.22,WeatherDisplay:10.37,2013-06-06 15:57:00,
2013-06-06 11:03:00,61.0,56.1,29.84,NE,45,0.0,0.0,84,0.00,OVC,FEW,0.22,WeatherDisplay:10.37,2013-06-06 16:03:00,
2013-06-06 11:08:00,60.8,55.9,29.84,NW,315,0.0,0.0,84,0.00,OVC,FEW,0.22,WeatherDisplay:10.37,2013-06-06 16:08:00,
2013-06-06 11:14:00,61.2,56.3,29.84,NE,45,0.0,0.0,84,0.00,OVC,FEW,0.22,WeatherDisplay:10.37,2013-06-06 16:14:00,
2013-06-06 11:19:00,61.3,56.5,29.84,NE,45,0.0,0.0,84,0.00,OVC,FEW,0.22,WeatherDisplay:10.37,2013-06-06 16:19:00,
2013-06-06 11:25:00,61.9,57.0,29.84,East,90,0.0,0.0,84,0.00,OVC,FEW,0.22,WeatherDisplay:10.37,2013-06-06 16:25:00,
2013-06-06 11:31:00,62.1,57.2,29.84,NW,315,1.6,2.3,84,0.00,OVC,FEW,0.22,WeatherDisplay:10.37,2013-06-06 16:31:00,
2013-06-06 11:36:00,62.1,57.2,29.84,South,180,0.0,1.2,84,0.00,OVC,FEW,0.22,WeatherDisplay:10.37,2013-06-06 16:36:00,
2013-06-06 11:42:00,62.1,57.2,29.84,NE,45,0.0,2.3,84,0.00,OVC,FEW,0.22,WeatherDisplay:10.37,2013-06-06 16:42:00,
2013-06-06 11:47:00,62.1,57.2,29.85,NE,45,0.0,1.2,84,0.00,OVC,FEW,0.22,WeatherDisplay:10.37,2013-06-06 16:47:00,
2013-06-06 11:53:00,62.4,57.5,29.84,NE,45,0.0,1.2,84,0.00,OVC,FEW,0.22,WeatherDisplay:10.37,2013-06-06 16:53:00,
2013-06-06 11:59:00,62.6,57.7,29.84,NW,315,0.0,2.3,84,0.00,OVC,FEW,0.22,WeatherDisplay:10.37,2013-06-06 16:59:00,
2013-06-06 12:04:00,62.8,57.9,29.84,SE,135,0.7,3.5,84,0.00,OVC,FEW,0.22,WeatherDisplay:10.37,2013-06-06 17:04:00,
2013-06-06 12:10:00,62.6,57.7,29.84,North,0,0.7,2.3,84,0.00,OVC,FEW,0.22,WeatherDisplay:10.37,2013-06-06 17:10:00,
2013-06-06 12:15:00,62.1,57.2,29.84,NW,315,1.6,5.8,84,0.00,OVC,FEW,0.22,WeatherDisplay:10.37,2013-06-06 17:15:00,
2013-06-06 12:21:00,62.1,57.2,29.84,North,0,1.6,3.5,84,0.00,OVC,FEW,0.22,WeatherDisplay:10.37,2013-06-06 17:21:00,
2013-06-06 12:27:00,62.2,57.3,29.85,NW,315,0.7,4.6,84,0.00,OVC,FEW,0.22,WeatherDisplay:10.37,2013-06-06 17:27:00,
2013-06-06 12:32:00,62.6,57.7,29.84,North,0,0.0,1.2,84,0.00,OVC,FEW,0.22,WeatherDisplay:10.37,2013-06-06 17:32:00,
2013-06-06 12:38:00,63.3,58.4,29.84,NE,45,0.0,1.2,84,0.00,OVC,FEW,0.22,WeatherDisplay:10.37,2013-06-06 17:38:00,
2013-06-06 12:43:00,64.0,59.1,29.84,North,0,0.7,3.5,84,0.00,OVC,FEW,0.22,WeatherDisplay:10.37,2013-06-06 17:43:00,
2013-06-06 12:49:00,64.8,59.8,29.84,SW,225,0.7,2.3,84,0.00,OVC,FEW,0.22,WeatherDisplay:10.37,2013-06-06 17:49:00,
2013-06-06 12:55:00,65.3,60.3,29.84,NE,45,1.6,3.5,84,0.00,OVC,FEW,0.22,WeatherDisplay:10.37,2013-06-06 17:55:00,
2013-06-06 13:00:00,65.1,60.2,29.84,NE,45,0.0,2.3,84,0.00,OVC,FEW,0.22,WeatherDisplay:10.37,2013-06-06 18:00:00,
2013-06-06 13:07:00,64.9,60.0,29.84,NE,45,0.7,2.3,84,0.00,OVC,FEW,0.22,WeatherDisplay:10.37,2013-06-06 18:07:00,
2013-06-06 13:12:00,64.9,59.7,29.84,North,0,0.7,3.5,83,0.00,OVC,FEW,0.22,WeatherDisplay:10.37,2013-06-06 18:12:00,
2013-06-06 13:18:00,65.1,60.2,29.84,East,90,0.0,1.6,84,0.00,OVC,FEW,0.22,WeatherDisplay:10.37,2013-06-06 18:18:00,
2013-06-06 13:23:00,66.2,61.2,29.84,West,270,0.0,2.3,84,0.00,OVC,FEW,0.22,WeatherDisplay:10.37,2013-06-06 18:23:00,
2013-06-06 13:29:00,67.1,61.1,29.84,NW,315,0.0,1.6,81,0.00,OVC,FEW,0.22,WeatherDisplay:10.37,2013-06-06 18:29:00,
2013-06-06 13:35:00,67.5,60.7,29.84,NW,315,0.0,3.5,79,0.00,OVC,FEW,0.22,WeatherDisplay:10.37,2013-06-06 18:35:00,
2013-06-06 13:40:00,66.7,60.0,29.85,NE,45,0.7,3.5,79,0.00,OVC,FEW,0.22,WeatherDisplay:10.37,2013-06-06 18:40:00,
2013-06-06 13:46:00,66.7,60.7,29.85,NE,45,0.7,1.2,81,0.00,OVC,FEW,0.22,WeatherDisplay:10.37,2013-06-06 18:46:00,
2013-06-06 13:51:00,66.4,60.0,29.84,NE,45,0.7,3.5,80,0.00,OVC,FEW,0.22,WeatherDisplay:10.37,2013-06-06 18:51:00,
2013-06-06 13:57:00,66.4,60.0,29.84,NE,45,0.7,2.3,80,0.00,OVC,FEW,0.22,WeatherDisplay:10.37,2013-06-06 18:57:00,
2013-06-06 14:03:00,66.4,60.7,29.84,NW,315,0.7,1.6,82,0.00,OVC,FEW,0.22,WeatherDisplay:10.37,2013-06-06 19:03:00,
2013-06-06 14:08:00,67.1,61.1,29.84,NE,45,1.6,3.8,81,0.00,OVC,FEW,0.22,WeatherDisplay:10.37,2013-06-06 19:08:00,
2013-06-06 14:14:00,67.5,61.1,29.84,SE,135,0.7,3.5,80,0.00,OVC,FEW,0.22,WeatherDisplay:10.37,2013-06-06 19:14:00,
2013-06-06 14:19:00,67.5,60.7,29.84,NE,45,0.0,3.5,79,0.00,OVC,FEW,0.22,WeatherDisplay:10.37,2013-06-06 19:19:00,
2013-06-06 14:25:00,68.2,61.4,29.84,NE,45,0.7,3.5,79,0.00,OVC,FEW,0.22,WeatherDisplay:10.37,2013-06-06 19:25:00,
2013-06-06 14:31:00,67.5,60.4,29.84,NE,45,0.7,2.3,78,0.00,OVC,FEW,0.22,WeatherDisplay:10.37,2013-06-06 19:31:00,
2013-06-06 14:34:00,67.1,60.4,29.84,NE,45,0.0,1.2,79,0.00,OVC,FEW,0.22,WeatherDisplay:10.37,2013-06-06 19:34:00,
2013-06-06 14:39:00,67.1,60.4,29.84,SE,135,0.0,1.6,79,0.00,OVC,FEW,0.22,WeatherDisplay:10.37,2013-06-06 19:39:00,
2013-06-06 14:45:00,66.7,60.4,29.84,NE,45,0.0,3.5,80,0.00,OVC,FEW,0.22,WeatherDisplay:10.37,2013-06-06 19:45:00,
2013-06-06 14:51:00,66.4,59.7,29.84,North,0,0.7,3.5,79,0.00,OVC,FEW,0.22,WeatherDisplay:10.37,2013-06-06 19:51:00,
2013-06-06 14:57:00,65.8,60.2,29.84,NW,315,0.7,3.5,82,0.00,OVC,FEW,0.22,WeatherDisplay:10.37,2013-06-06 19:57:00,
2013-06-06 15:03:00,66.0,60.4,29.84,East,90,0.7,3.8,82,0.00,OVC,FEW,0.22,WeatherDisplay:10.37,2013-06-06 20:03:00,
2013-06-06 15:08:00,67.6,62.3,29.84,East,90,0.0,1.2,83,0.00,OVC,FEW,0.22,WeatherDisplay:10.37,2013-06-06 20:08:00,
2013-06-06 15:14:00,69.6,62.1,29.83,NE,45,1.6,1.6,77,0.00,OVC,FEW,0.22,WeatherDisplay:10.37,2013-06-06 20:14:00,
2013-06-06 15:19:00,69.3,60.2,29.84,East,90,2.2,3.5,73,0.00,OVC,FEW,0.22,WeatherDisplay:10.37,2013-06-06 20:19:00,
2013-06-06 15:25:00,68.7,60.5,29.84,NW,315,0.0,3.5,75,0.00,OVC,FEW,0.22,WeatherDisplay:10.37,2013-06-06 20:25:00,
2013-06-06 15:31:00,69.1,60.4,29.84,NW,315,0.7,3.5,74,0.00,OVC,FEW,0.22,WeatherDisplay:10.37,2013-06-06 20:31:00,
2013-06-06 15:36:00,69.1,59.7,29.84,NW,315,2.2,4.6,72,0.00,OVC,FEW,0.22,WeatherDisplay:10.37,2013-06-06 20:36:00,
2013-06-06 15:42:00,68.9,60.3,29.84,NE,45,1.6,5.8,74,0.00,OVC,FEW,0.22,WeatherDisplay:10.37,2013-06-06 20:42:00,
2013-06-06 15:47:00,69.3,59.8,29.84,North,0,2.2,5.8,72,0.00,OVC,FEW,0.22,WeatherDisplay:10.37,2013-06-06 20:47:00,
2013-06-06 15:53:00,69.1,60.1,29.84,North,0,0.0,3.5,73,0.00,OVC,FEW,0.22,WeatherDisplay:10.37,2013-06-06 20:53:00,
2013-06-06 15:59:00,67.8,59.2,29.84,North,0,0.7,5.8,74,0.00,OVC,FEW,0.22,WeatherDisplay:10.37,2013-06-06 20:59:00,
2013-06-06 16:04:00,66.7,59.3,29.84,NW,315,0.7,4.6,77,0.00,OVC,FEW,0.22,WeatherDisplay:10.37,2013-06-06 21:04:00,
2013-06-06 16:10:00,66.7,59.3,29.84,NW,315,0.7,5.8,77,0.00,OVC,FEW,0.22,WeatherDisplay:10.37,2013-06-06 21:10:00,
2013-06-06 16:16:00,66.4,58.9,29.83,North,0,0.7,4.6,77,0.00,OVC,FEW,0.22,WeatherDisplay:10.37,2013-06-06 21:16:00,
2013-06-06 16:21:00,66.4,58.6,29.84,North,0,3.1,5.8,76,0.00,OVC,FEW,0.22,WeatherDisplay:10.37,2013-06-06 21:21:00,
2013-06-06 16:27:00,66.6,58.4,29.84,North,0,3.1,5.8,75,0.00,OVC,FEW,0.22,WeatherDisplay:10.37,2013-06-06 21:27:00,
2013-06-06 16:32:00,66.7,58.9,29.84,NW,315,1.6,4.6,76,0.00,OVC,FEW,0.22,WeatherDisplay:10.37,2013-06-06 21:32:00,
2013-06-06 16:38:00,66.4,58.6,29.84,NNE,22,2.2,8.1,76,0.00,OVC,FEW,0.22,WeatherDisplay:10.37,2013-06-06 21:38:00,
2013-06-06 16:43:00,66.4,58.9,29.84,NW,315,1.6,3.1,77,0.00,OVC,FEW,0.22,WeatherDisplay:10.37,2013-06-06 21:43:00,
2013-06-06 16:49:00,66.4,58.6,29.84,NW,315,2.2,4.6,76,0.00,OVC,FEW,0.22,WeatherDisplay:10.37,2013-06-06 21:49:00,
2013-06-06 16:55:00,66.0,58.6,29.84,North,0,2.2,4.6,77,0.00,OVC,FEW,0.22,WeatherDisplay:10.37,2013-06-06 21:55:00,
2013-06-06 17:00:00,66.0,59.0,29.85,NW,315,0.0,2.3,78,0.00,OVC,FEW,0.22,WeatherDisplay:10.37,2013-06-06 22:00:00,
2013-06-06 17:07:00,66.4,59.3,29.84,NE,45,0.7,3.8,78,0.00,OVC,FEW,0.22,WeatherDisplay:10.37,2013-06-06 22:07:00,
2013-06-06 17:12:00,66.2,58.8,29.85,North,0,1.6,3.5,77,0.00,OVC,FEW,0.22,WeatherDisplay:10.37,2013-06-06 22:12:00,
2013-06-06 17:18:00,66.2,58.8,29.85,NE,45,1.6,3.5,77,0.00,OVC,FEW,0.22,WeatherDisplay:10.37,2013-06-06 22:18:00,
2013-06-06 17:23:00,66.2,59.5,29.85,North,0,1.6,3.5,79,0.00,OVC,FEW,0.22,WeatherDisplay:10.37,2013-06-06 22:23:00,
2013-06-06 17:29:00,66.2,58.8,29.85,NW,315,2.2,5.8,77,0.00,OVC,FEW,0.22,WeatherDisplay:10.37,2013-06-06 22:29:00,
2013-06-06 17:35:00,66.6,59.1,29.84,North,0,0.7,3.5,77,0.00,OVC,FEW,0.22,WeatherDisplay:10.37,2013-06-06 22:35:00,
2013-06-06 17:40:00,66.6,59.1,29.84,NW,315,1.6,4.6,77,0.00,OVC,FEW,0.22,WeatherDisplay:10.37,2013-06-06 22:40:00,
2013-06-06 17:47:00,66.7,58.9,29.84,NE,45,0.7,3.5,76,0.00,OVC,FEW,0.22,WeatherDisplay:10.37,2013-06-06 22:47:00,
2013-06-06 17:52:00,67.1,59.3,29.84,East,90,1.6,3.5,76,0.00,OVC,FEW,0.22,WeatherDisplay:10.37,2013-06-06 22:52:00,
2013-06-06 17:58:00,66.7,58.9,29.84,NE,45,1.6,4.6,76,0.00,OVC,FEW,0.22,WeatherDisplay:10.37,2013-06-06 22:58:00,
2013-06-06 18:03:00,66.4,58.9,29.84,NE,45,0.7,4.6,77,0.00,OVC,FEW,0.22,WeatherDisplay:10.37,2013-06-06 23:03:00,
2013-06-06 18:09:00,66.4,58.9,29.84,North,0,0.7,3.5,77,0.00,OVC,FEW,0.22,WeatherDisplay:10.37,2013-06-06 23:09:00,
2013-06-06 18:15:00,66.4,58.9,29.84,NW,315,2.2,3.5,77,0.00,OVC,FEW,0.22,WeatherDisplay:10.37,2013-06-06 23:15:00,
2013-06-06 18:20:00,66.4,58.9,29.84,NE,45,1.6,5.8,77,0.00,OVC,FEW,0.22,WeatherDisplay:10.37,2013-06-06 23:20:00,
2013-06-06 18:27:00,66.2,59.1,29.83,NNW,338,0.0,3.5,78,0.00,OVC,FEW,0.22,WeatherDisplay:10.37,2013-06-06 23:27:00,
2013-06-06 18:32:00,66.2,59.1,29.83,North,0,1.6,4.6,78,0.00,OVC,FEW,0.22,WeatherDisplay:10.37,2013-06-06 23:32:00,
2013-06-06 18:38:00,66.0,59.3,29.84,NE,45,0.0,3.5,79,0.00,OVC,FEW,0.22,WeatherDisplay:10.37,2013-06-06 23:38:00,
2013-06-06 18:43:00,65.8,59.5,29.84,East,90,0.7,3.5,80,0.00,OVC,FEW,0.22,WeatherDisplay:10.37,2013-06-06 23:43:00,
2013-06-06 18:49:00,65.8,59.5,29.83,NE,45,0.7,3.5,80,0.00,OVC,FEW,0.22,WeatherDisplay:10.37,2013-06-06 23:49:00,
2013-06-06 18:55:00,65.7,59.7,29.84,North,0,0.0,1.2,81,0.00,OVC,FEW,0.22,WeatherDisplay:10.37,2013-06-06 23:55:00,
2013-06-06 19:00:00,65.5,59.8,29.84,NE,45,1.6,3.5,82,0.00,OVC,FEW,0.22,WeatherDisplay:10.37,2013-06-07 00:00:00,
2013-06-06 19:07:00,65.3,60.0,29.83,NE,45,0.7,3.8,83,0.00,OVC,FEW,0.22,WeatherDisplay:10.37,2013-06-07 00:07:00,
2013-06-06 19:12:00,65.1,59.8,29.84,NE,45,0.7,4.6,83,0.00,OVC,FEW,0.22,WeatherDisplay:10.37,2013-06-07 00:12:00,
2013-06-06 19:18:00,64.9,60.0,29.84,NW,315,2.2,2.3,84,0.00,OVC,FEW,0.22,WeatherDisplay:10.37,2013-06-07 00:18:00,
2013-06-06 19:23:00,64.9,60.0,29.84,NE,45,1.6,3.5,84,0.00,OVC,FEW,0.22,WeatherDisplay:10.37,2013-06-07 00:23:00,
2013-06-06 19:29:00,64.9,60.0,29.84,NW,315,3.1,5.8,84,0.00,OVC,FEW,0.22,WeatherDisplay:10.37,2013-06-07 00:29:00,
2013-06-06 19:35:00,64.8,59.8,29.84,NW,315,2.2,5.8,84,0.00,OVC,FEW,0.22,WeatherDisplay:10.37,2013-06-07 00:35:00,
2013-06-06 19:40:00,64.8,59.8,29.84,NW,315,3.1,9.2,84,0.00,OVC,FEW,0.22,WeatherDisplay:10.37,2013-06-07 00:40:00,
2013-06-06 19:47:00,64.6,59.6,29.84,NW,315,4.5,8.3,84,0.00,OVC,FEW,0.22,WeatherDisplay:10.37,2013-06-07 00:47:00,
2013-06-06 19:52:00,64.2,59.3,29.84,NE,45,1.6,8.1,84,0.00,OVC,FEW,0.22,WeatherDisplay:10.37,2013-06-07 00:52:00,
2013-06-06 19:58:00,64.0,59.1,29.84,WNW,292,2.2,9.2,84,0.00,OVC,FEW,0.22,WeatherDisplay:10.37,2013-06-07 00:58:00,
2013-06-06 20:03:00,64.0,59.1,29.84,NE,45,3.1,5.8,84,0.00,OVC,FEW,0.22,WeatherDisplay:10.37,2013-06-07 01:03:00,
2013-06-06 20:09:00,63.7,58.8,29.84,NW,315,1.6,3.5,84,0.00,OVC,FEW,0.22,WeatherDisplay:10.37,2013-06-07 01:09:00,
2013-06-06 20:15:00,63.3,58.4,29.84,NW,315,2.2,5.8,84,0.00,OVC,FEW,0.22,WeatherDisplay:10.37,2013-06-07 01:15:00,
2013-06-06 20:20:00,63.1,58.2,29.85,NE,45,3.1,6.9,84,0.00,OVC,FEW,0.22,WeatherDisplay:10.37,2013-06-07 01:20:00,
2013-06-06 20:27:00,63.0,58.0,29.85,North,0,1.6,4.6,84,0.00,OVC,FEW,0.22,WeatherDisplay:10.37,2013-06-07 01:27:00,
2013-06-06 20:32:00,62.6,57.7,29.84,North,0,2.2,5.8,84,0.00,OVC,FEW,0.22,WeatherDisplay:10.37,2013-06-07 01:32:00,
2013-06-06 20:38:00,62.8,57.9,29.85,North,0,1.6,3.5,84,0.00,OVC,FEW,0.22,WeatherDisplay:10.37,2013-06-07 01:38:00,
2013-06-06 20:43:00,62.4,57.5,29.85,North,0,0.7,3.5,84,0.00,OVC,FEW,0.22,WeatherDisplay:10.37,2013-06-07 01:43:00,
2013-06-06 20:49:00,62.1,57.2,29.85,NW,315,0.0,2.3,84,0.00,OVC,FEW,0.22,WeatherDisplay:10.37,2013-06-07 01:49:00,
2013-06-06 20:55:00,61.9,57.0,29.85,North,0,0.7,2.3,84,0.00,OVC,FEW,0.22,WeatherDisplay:10.37,2013-06-07 01:55:00,
2013-06-06 21:00:00,61.9,57.0,29.85,NE,45,0.7,2.3,84,0.00,OVC,FEW,0.22,WeatherDisplay:10.37,2013-06-07 02:00:00,
2013-06-06 21:06:00,61.7,56.8,29.85,NE,45,0.0,3.5,84,0.00,OVC,FEW,0.22,WeatherDisplay:10.37,2013-06-07 02:06:00,
2013-06-06 21:11:00,61.5,56.6,29.85,NE,45,0.0,3.5,84,0.00,OVC,FEW,0.22,WeatherDisplay:10.37,2013-06-07 02:11:00,
2013-06-06 21:17:00,61.5,56.6,29.85,NE,45,0.7,2.3,84,0.00,OVC,FEW,0.22,WeatherDisplay:10.37,2013-06-07 02:17:00,
2013-06-06 21:23:00,61.5,56.6,29.86,ENE,68,0.7,4.6,84,0.00,OVC,FEW,0.22,WeatherDisplay:10.37,2013-06-07 02:23:00,
2013-06-06 21:28:00,61.5,56.6,29.86,North,0,1.6,3.5,84,0.00,OVC,FEW,0.22,WeatherDisplay:10.37,2013-06-07 02:28:00,
2013-06-06 21:34:00,61.5,56.6,29.86,NE,45,0.7,3.1,84,0.00,OVC,FEW,0.22,WeatherDisplay:10.37,2013-06-07 02:34:00,
2013-06-06 21:39:00,61.5,56.6,29.87,North,0,1.6,4.5,84,0.00,OVC,FEW,0.22,WeatherDisplay:10.37,2013-06-07 02:39:00,
2013-06-06 21:45:00,61.3,56.5,29.87,NE,45,0.7,3.5,84,0.00,OVC,FEW,0.22,WeatherDisplay:10.37,2013-06-07 02:45:00,
2013-06-06 21:51:00,61.3,56.5,29.87,NE,45,0.7,3.5,84,0.00,OVC,FEW,0.22,WeatherDisplay:10.37,2013-06-07 02:51:00,
2013-06-06 21:56:00,61.2,56.3,29.88,North,0,0.0,5.8,84,0.00,OVC,FEW,0.22,WeatherDisplay:10.37,2013-06-07 02:56:00,
2013-06-06 22:02:00,61.3,56.5,29.87,East,90,2.2,3.8,84,0.00,OVC,FEW,0.22,WeatherDisplay:10.37,2013-06-07 03:02:00,
2013-06-06 22:07:00,61.2,56.3,29.88,East,90,0.7,3.5,84,0.00,OVC,FEW,0.22,WeatherDisplay:10.37,2013-06-07 03:07:00,
2013-06-06 22:13:00,61.2,56.3,29.88,NE,45,0.0,3.5,84,0.00,OVC,FEW,0.22,WeatherDisplay:10.37,2013-06-07 03:13:00,
2013-06-06 22:19:00,61.0,56.1,29.88,North,0,0.0,3.5,84,0.00,OVC,FEW,0.22,WeatherDisplay:10.37,2013-06-07 03:19:00,
2013-06-06 22:24:00,61.0,56.1,29.88,North,0,0.0,1.2,84,0.00,OVC,FEW,0.22,WeatherDisplay:10.37,2013-06-07 03:24:00,
2013-06-06 22:30:00,60.8,55.9,29.88,East,90,0.0,3.5,84,0.00,OVC,FEW,0.22,WeatherDisplay:10.37,2013-06-07 03:30:00,
2013-06-06 22:35:00,60.8,55.9,29.88,NE,45,1.6,3.1,84,0.00,OVC,FEW,0.22,WeatherDisplay:10.37,2013-06-07 03:35:00,
2013-06-06 22:41:00,60.6,55.8,29.88,NW,315,1.6,3.5,84,0.00,RA,FEW,0.22,WeatherDisplay:10.37,2013-06-07 03:41:00,
2013-06-06 22:46:00,60.4,55.6,29.88,North,0,0.7,3.1,84,0.00,RA,FEW,0.22,WeatherDisplay:10.37,2013-06-07 03:46:00,
2013-06-06 22:52:00,60.4,55.6,29.87,SE,135,0.0,1.2,84,0.00,OVC,FEW,0.22,WeatherDisplay:10.37,2013-06-07 03:52:00,
2013-06-06 22:58:00,60.3,55.4,29.88,ENE,68,0.7,3.5,84,0.00,OVC,FEW,0.22,WeatherDisplay:10.37,2013-06-07 03:58:00,
2013-06-06 23:01:00,60.3,55.4,29.88,NE,45,0.7,3.5,84,0.00,OVC,FEW,0.22,WeatherDisplay:10.37,2013-06-07 04:01:00,
2013-06-06 23:02:00,60.3,55.4,29.88,North,0,0.7,3.1,84,0.00,OVC,FEW,0.22,WeatherDisplay:10.37,2013-06-07 04:02:00,
2013-06-06 23:04:00,60.3,55.4,29.88,North,0,0.7,2.3,84,0.00,OVC,FEW,0.22,WeatherDisplay:10.37,2013-06-07 04:04:00,
2013-06-06 23:05:00,60.3,55.4,29.88,North,0,0.7,3.5,84,0.00,OVC,FEW,0.22,WeatherDisplay:10.37,2013-06-07 04:05:00,
2013-06-06 23:09:00,60.3,55.4,29.88,North,0,0.7,2.3,84,0.00,OVC,FEW,0.22,WeatherDisplay:10.37,2013-06-07 04:09:00,
2013-06-06 23:14:00,60.1,55.2,29.88,NE,45,0.7,3.5,84,0.00,OVC,FEW,0.22,WeatherDisplay:10.37,2013-06-07 04:14:00,
2013-06-06 23:20:00,60.1,55.2,29.88,SW,225,2.2,3.5,84,0.00,OVC,FEW,0.22,WeatherDisplay:10.37,2013-06-07 04:20:00,
2013-06-06 23:26:00,60.1,55.2,29.88,NE,45,0.7,3.5,84,0.00,OVC,FEW,0.22,WeatherDisplay:10.37,2013-06-07 04:26:00,
2013-06-06 23:31:00,60.1,55.2,29.88,NE,45,0.7,3.5,84,0.00,OVC,FEW,0.22,WeatherDisplay:10.37,2013-06-07 04:31:00,
2013-06-06 23:37:00,60.1,55.2,29.88,NE,45,0.7,4.6,84,0.00,OVC,FEW,0.22,WeatherDisplay:10.37,2013-06-07 04:37:00,
2013-06-06 23:42:00,59.9,55.1,29.88,NE,45,0.7,2.3,84,0.00,OVC,FEW,0.22,WeatherDisplay:10.37,2013-06-07 04:42:00,
2013-06-06 23:48:00,59.9,55.1,29.88,NW,315,2.2,4.6,84,0.00,OVC,FEW,0.22,WeatherDisplay:10.37,2013-06-07 04:48:00,
2013-06-06 23:54:00,59.9,55.1,29.88,NE,45,0.7,4.5,84,0.00,OVC,FEW,0.22,WeatherDisplay:10.37,2013-06-07 04:54:00,
2013-06-06 23:59:00,59.7,54.9,29.88,NW,315,0.7,3.5,84,0.00,OVC,FEW,0.22,WeatherDisplay:10.37,2013-06-07 04:59:00,